sensor_id;sensor_type;location;lat;lon;timestamp;P1;durP1;ratioP1;P2;durP2;ratioP2
18574;SDS011;9417;16.484;102.872;2022-10-31T00:00:06;93.45;;;62.40;;
18574;SDS011;9417;16.484;102.872;2022-10-31T00:02:16;97.82;;;63.60;;
18574;SDS011;9417;16.484;102.872;2022-10-31T00:04:23;96.20;;;62.88;;
18574;SDS011;9417;16.484;102.872;2022-10-31T00:06:30;93.45;;;63.20;;
18574;SDS011;9417;16.484;102.872;2022-10-31T00:08:37;93.13;;;63.67;;
18574;SDS011;9417;16.484;102.872;2022-10-31T00:10:44;96.78;;;63.35;;
18574;SDS011;9417;16.484;102.872;2022-10-31T00:12:52;97.38;;;63.28;;
18574;SDS011;9417;16.484;102.872;2022-10-31T00:15:01;91.85;;;60.92;;
18574;SDS011;9417;16.484;102.872;2022-10-31T00:17:08;88.35;;;60.05;;
18574;SDS011;9417;16.484;102.872;2022-10-31T00:19:15;90.47;;;60.63;;
18574;SDS011;9417;16.484;102.872;2022-10-31T00:21:22;88.72;;;58.13;;
18574;SDS011;9417;16.484;102.872;2022-10-31T00:23:29;91.32;;;60.92;;
18574;SDS011;9417;16.484;102.872;2022-10-31T00:25:36;87.35;;;59.72;;
18574;SDS011;9417;16.484;102.872;2022-10-31T00:27:44;87.22;;;59.55;;
18574;SDS011;9417;16.484;102.872;2022-10-31T00:29:51;95.40;;;59.42;;
18574;SDS011;9417;16.484;102.872;2022-10-31T00:32:00;82.85;;;58.85;;
18574;SDS011;9417;16.484;102.872;2022-10-31T00:34:07;83.68;;;55.97;;
18574;SDS011;9417;16.484;102.872;2022-10-31T00:36:15;82.55;;;57.97;;
18574;SDS011;9417;16.484;102.872;2022-10-31T00:38:23;76.65;;;55.90;;
18574;SDS011;9417;16.484;102.872;2022-10-31T00:40:29;79.15;;;55.72;;
18574;SDS011;9417;16.484;102.872;2022-10-31T00:42:36;77.40;;;55.40;;
18574;SDS011;9417;16.484;102.872;2022-10-31T00:44:45;77.57;;;55.35;;
18574;SDS011;9417;16.484;102.872;2022-10-31T00:46:51;79.35;;;55.85;;
18574;SDS011;9417;16.484;102.872;2022-10-31T00:49:01;78.57;;;54.10;;
18574;SDS011;9417;16.484;102.872;2022-10-31T00:51:08;75.55;;;53.10;;
18574;SDS011;9417;16.484;102.872;2022-10-31T00:53:16;75.20;;;53.13;;
18574;SDS011;9417;16.484;102.872;2022-10-31T00:55:23;72.70;;;51.92;;
18574;SDS011;9417;16.484;102.872;2022-10-31T00:57:29;75.93;;;53.33;;
18574;SDS011;9417;16.484;102.872;2022-10-31T00:59:38;71.18;;;50.72;;
18574;SDS011;9417;16.484;102.872;2022-10-31T01:01:45;67.47;;;48.55;;
18574;SDS011;9417;16.484;102.872;2022-10-31T01:03:53;70.45;;;49.50;;
18574;SDS011;9417;16.484;102.872;2022-10-31T01:06:03;71.60;;;52.88;;
18574;SDS011;9417;16.484;102.872;2022-10-31T01:08:11;67.68;;;50.63;;
18574;SDS011;9417;16.484;102.872;2022-10-31T01:10:19;69.00;;;48.95;;
18574;SDS011;9417;16.484;102.872;2022-10-31T01:12:26;66.47;;;49.40;;
18574;SDS011;9417;16.484;102.872;2022-10-31T01:14:33;65.75;;;48.35;;
18574;SDS011;9417;16.484;102.872;2022-10-31T01:16:40;72.35;;;49.60;;
18574;SDS011;9417;16.484;102.872;2022-10-31T01:18:49;69.32;;;50.15;;
18574;SDS011;9417;16.484;102.872;2022-10-31T01:21:04;68.95;;;49.83;;
18574;SDS011;9417;16.484;102.872;2022-10-31T01:23:12;69.07;;;49.45;;
18574;SDS011;9417;16.484;102.872;2022-10-31T01:25:19;60.67;;;45.85;;
18574;SDS011;9417;16.484;102.872;2022-10-31T01:27:26;59.08;;;45.50;;
18574;SDS011;9417;16.484;102.872;2022-10-31T01:29:33;57.80;;;43.47;;
18574;SDS011;9417;16.484;102.872;2022-10-31T01:31:40;55.75;;;41.20;;
18574;SDS011;9417;16.484;102.872;2022-10-31T01:33:49;59.45;;;42.42;;
18574;SDS011;9417;16.484;102.872;2022-10-31T01:35:56;54.75;;;42.70;;
18574;SDS011;9417;16.484;102.872;2022-10-31T01:38:04;54.38;;;41.10;;
18574;SDS011;9417;16.484;102.872;2022-10-31T01:40:11;52.65;;;39.70;;
18574;SDS011;9417;16.484;102.872;2022-10-31T01:42:19;52.63;;;40.60;;
18574;SDS011;9417;16.484;102.872;2022-10-31T01:47:01;51.03;;;38.17;;
18574;SDS011;9417;16.484;102.872;2022-10-31T01:49:13;49.65;;;39.33;;
18574;SDS011;9417;16.484;102.872;2022-10-31T01:51:24;52.08;;;38.65;;
18574;SDS011;9417;16.484;102.872;2022-10-31T01:53:35;47.08;;;37.97;;
18574;SDS011;9417;16.484;102.872;2022-10-31T01:55:44;49.30;;;38.40;;
18574;SDS011;9417;16.484;102.872;2022-10-31T01:57:52;51.10;;;39.53;;
18574;SDS011;9417;16.484;102.872;2022-10-31T02:02:14;51.05;;;37.90;;
18574;SDS011;9417;16.484;102.872;2022-10-31T02:04:23;50.03;;;37.25;;
18574;SDS011;9417;16.484;102.872;2022-10-31T02:06:33;43.65;;;35.47;;
18574;SDS011;9417;16.484;102.872;2022-10-31T02:08:48;44.03;;;35.78;;
18574;SDS011;9417;16.484;102.872;2022-10-31T02:10:56;47.03;;;36.80;;
18574;SDS011;9417;16.484;102.872;2022-10-31T02:13:05;45.47;;;34.28;;
18574;SDS011;9417;16.484;102.872;2022-10-31T02:15:19;42.60;;;33.88;;
18574;SDS011;9417;16.484;102.872;2022-10-31T02:17:27;46.25;;;36.78;;
18574;SDS011;9417;16.484;102.872;2022-10-31T02:19:39;47.17;;;37.13;;
18574;SDS011;9417;16.484;102.872;2022-10-31T02:21:52;46.92;;;35.83;;
18574;SDS011;9417;16.484;102.872;2022-10-31T02:24:17;43.17;;;34.55;;
18574;SDS011;9417;16.484;102.872;2022-10-31T02:27:05;42.10;;;34.63;;
18574;SDS011;9417;16.484;102.872;2022-10-31T02:29:52;44.70;;;34.20;;
18574;SDS011;9417;16.484;102.872;2022-10-31T02:32:13;45.05;;;35.42;;
18574;SDS011;9417;16.484;102.872;2022-10-31T02:34:30;43.70;;;35.00;;
18574;SDS011;9417;16.484;102.872;2022-10-31T02:36:43;43.55;;;36.28;;
18574;SDS011;9417;16.484;102.872;2022-10-31T02:39:00;43.95;;;35.13;;
18574;SDS011;9417;16.484;102.872;2022-10-31T02:41:18;43.42;;;34.83;;
18574;SDS011;9417;16.484;102.872;2022-10-31T02:43:40;42.35;;;32.20;;
18574;SDS011;9417;16.484;102.872;2022-10-31T02:45:57;43.65;;;33.58;;
18574;SDS011;9417;16.484;102.872;2022-10-31T02:48:12;42.63;;;31.42;;
18574;SDS011;9417;16.484;102.872;2022-10-31T02:50:25;36.70;;;30.75;;
18574;SDS011;9417;16.484;102.872;2022-10-31T02:52:37;36.28;;;30.35;;
18574;SDS011;9417;16.484;102.872;2022-10-31T02:54:44;40.80;;;31.88;;
18574;SDS011;9417;16.484;102.872;2022-10-31T02:56:54;38.67;;;31.45;;
18574;SDS011;9417;16.484;102.872;2022-10-31T02:59:05;39.00;;;30.80;;
18574;SDS011;9417;16.484;102.872;2022-10-31T03:01:33;43.13;;;32.90;;
18574;SDS011;9417;16.484;102.872;2022-10-31T03:06:30;39.00;;;30.23;;
18574;SDS011;9417;16.484;102.872;2022-10-31T03:10:51;39.50;;;29.88;;
18574;SDS011;9417;16.484;102.872;2022-10-31T03:13:01;36.90;;;30.33;;
18574;SDS011;9417;16.484;102.872;2022-10-31T03:15:17;39.03;;;31.15;;
18574;SDS011;9417;16.484;102.872;2022-10-31T03:17:29;39.05;;;31.00;;
18574;SDS011;9417;16.484;102.872;2022-10-31T03:19:42;39.70;;;31.35;;
18574;SDS011;9417;16.484;102.872;2022-10-31T03:21:54;34.13;;;27.52;;
18574;SDS011;9417;16.484;102.872;2022-10-31T03:24:05;33.88;;;27.90;;
18574;SDS011;9417;16.484;102.872;2022-10-31T03:26:15;33.58;;;28.05;;
18574;SDS011;9417;16.484;102.872;2022-10-31T03:28:23;37.40;;;30.33;;
18574;SDS011;9417;16.484;102.872;2022-10-31T03:30:35;35.78;;;28.52;;
18574;SDS011;9417;16.484;102.872;2022-10-31T03:32:44;33.63;;;28.30;;
18574;SDS011;9417;16.484;102.872;2022-10-31T03:34:57;32.45;;;25.58;;
18574;SDS011;9417;16.484;102.872;2022-10-31T03:37:07;31.75;;;25.90;;
18574;SDS011;9417;16.484;102.872;2022-10-31T03:39:17;31.98;;;26.70;;
18574;SDS011;9417;16.484;102.872;2022-10-31T03:41:28;33.00;;;26.25;;
18574;SDS011;9417;16.484;102.872;2022-10-31T03:43:40;30.73;;;25.20;;
18574;SDS011;9417;16.484;102.872;2022-10-31T03:45:51;32.65;;;25.92;;
18574;SDS011;9417;16.484;102.872;2022-10-31T03:47:58;29.95;;;25.25;;
18574;SDS011;9417;16.484;102.872;2022-10-31T03:50:08;26.98;;;23.23;;
18574;SDS011;9417;16.484;102.872;2022-10-31T03:52:22;29.48;;;25.25;;
18574;SDS011;9417;16.484;102.872;2022-10-31T03:54:34;29.63;;;24.55;;
18574;SDS011;9417;16.484;102.872;2022-10-31T03:56:48;31.92;;;23.58;;
18574;SDS011;9417;16.484;102.872;2022-10-31T03:58:59;29.97;;;24.63;;
18574;SDS011;9417;16.484;102.872;2022-10-31T04:01:09;28.15;;;23.80;;
18574;SDS011;9417;16.484;102.872;2022-10-31T04:03:22;27.88;;;23.50;;
18574;SDS011;9417;16.484;102.872;2022-10-31T04:05:34;27.73;;;23.30;;
18574;SDS011;9417;16.484;102.872;2022-10-31T04:07:44;28.30;;;22.77;;
18574;SDS011;9417;16.484;102.872;2022-10-31T04:09:55;29.48;;;22.63;;
18574;SDS011;9417;16.484;102.872;2022-10-31T04:12:05;25.05;;;21.50;;
18574;SDS011;9417;16.484;102.872;2022-10-31T04:14:29;25.52;;;22.15;;
18574;SDS011;9417;16.484;102.872;2022-10-31T04:16:38;27.95;;;21.67;;
18574;SDS011;9417;16.484;102.872;2022-10-31T04:18:47;27.17;;;21.33;;
18574;SDS011;9417;16.484;102.872;2022-10-31T04:21:01;24.58;;;20.50;;
18574;SDS011;9417;16.484;102.872;2022-10-31T04:23:13;24.05;;;20.15;;
18574;SDS011;9417;16.484;102.872;2022-10-31T04:25:25;25.17;;;20.80;;
18574;SDS011;9417;16.484;102.872;2022-10-31T04:27:34;25.00;;;20.50;;
18574;SDS011;9417;16.484;102.872;2022-10-31T04:29:42;27.38;;;20.85;;
18574;SDS011;9417;16.484;102.872;2022-10-31T04:31:53;25.85;;;21.20;;
18574;SDS011;9417;16.484;102.872;2022-10-31T04:34:00;26.83;;;19.52;;
18574;SDS011;9417;16.484;102.872;2022-10-31T04:36:07;25.65;;;21.75;;
18574;SDS011;9417;16.484;102.872;2022-10-31T04:38:16;25.27;;;20.42;;
18574;SDS011;9417;16.484;102.872;2022-10-31T04:40:24;26.75;;;21.15;;
18574;SDS011;9417;16.484;102.872;2022-10-31T04:42:51;28.17;;;21.67;;
18574;SDS011;9417;16.484;102.872;2022-10-31T04:44:58;28.00;;;21.88;;
18574;SDS011;9417;16.484;102.872;2022-10-31T04:47:07;28.77;;;20.92;;
18574;SDS011;9417;16.484;102.872;2022-10-31T04:49:14;26.30;;;21.17;;
18574;SDS011;9417;16.484;102.872;2022-10-31T04:51:21;24.58;;;20.35;;
18574;SDS011;9417;16.484;102.872;2022-10-31T04:53:29;24.23;;;20.17;;
18574;SDS011;9417;16.484;102.872;2022-10-31T04:55:48;23.80;;;20.15;;
18574;SDS011;9417;16.484;102.872;2022-10-31T04:57:58;25.83;;;20.77;;
18574;SDS011;9417;16.484;102.872;2022-10-31T05:00:07;24.13;;;20.40;;
18574;SDS011;9417;16.484;102.872;2022-10-31T05:02:15;26.15;;;20.73;;
18574;SDS011;9417;16.484;102.872;2022-10-31T05:04:29;26.45;;;20.40;;
18574;SDS011;9417;16.484;102.872;2022-10-31T05:06:37;27.33;;;20.77;;
18574;SDS011;9417;16.484;102.872;2022-10-31T05:08:45;25.52;;;21.38;;
18574;SDS011;9417;16.484;102.872;2022-10-31T05:10:52;27.08;;;20.90;;
18574;SDS011;9417;16.484;102.872;2022-10-31T05:13:05;24.17;;;19.55;;
18574;SDS011;9417;16.484;102.872;2022-10-31T05:15:25;22.48;;;19.33;;
18574;SDS011;9417;16.484;102.872;2022-10-31T05:17:45;24.25;;;19.85;;
18574;SDS011;9417;16.484;102.872;2022-10-31T05:20:05;25.20;;;20.38;;
18574;SDS011;9417;16.484;102.872;2022-10-31T05:22:25;23.45;;;19.27;;
18574;SDS011;9417;16.484;102.872;2022-10-31T05:24:34;22.15;;;18.27;;
18574;SDS011;9417;16.484;102.872;2022-10-31T05:26:44;22.40;;;19.42;;
18574;SDS011;9417;16.484;102.872;2022-10-31T05:28:52;22.15;;;18.85;;
18574;SDS011;9417;16.484;102.872;2022-10-31T05:30:58;24.77;;;19.85;;
18574;SDS011;9417;16.484;102.872;2022-10-31T05:33:06;23.13;;;19.42;;
18574;SDS011;9417;16.484;102.872;2022-10-31T05:35:13;22.48;;;19.52;;
18574;SDS011;9417;16.484;102.872;2022-10-31T05:37:34;24.10;;;19.30;;
18574;SDS011;9417;16.484;102.872;2022-10-31T05:39:42;24.60;;;19.45;;
18574;SDS011;9417;16.484;102.872;2022-10-31T05:41:51;23.90;;;19.15;;
18574;SDS011;9417;16.484;102.872;2022-10-31T05:44:01;22.98;;;19.02;;
18574;SDS011;9417;16.484;102.872;2022-10-31T05:46:21;21.85;;;19.02;;
18574;SDS011;9417;16.484;102.872;2022-10-31T05:48:47;28.42;;;18.77;;
18574;SDS011;9417;16.484;102.872;2022-10-31T05:51:16;23.63;;;17.85;;
18574;SDS011;9417;16.484;102.872;2022-10-31T05:53:23;22.35;;;18.92;;
18574;SDS011;9417;16.484;102.872;2022-10-31T05:55:31;23.00;;;18.83;;
18574;SDS011;9417;16.484;102.872;2022-10-31T05:57:43;20.02;;;17.92;;
18574;SDS011;9417;16.484;102.872;2022-10-31T05:59:51;21.23;;;17.52;;
18574;SDS011;9417;16.484;102.872;2022-10-31T06:01:58;19.17;;;17.02;;
18574;SDS011;9417;16.484;102.872;2022-10-31T06:04:20;20.13;;;16.63;;
18574;SDS011;9417;16.484;102.872;2022-10-31T06:06:27;18.90;;;16.45;;
18574;SDS011;9417;16.484;102.872;2022-10-31T06:08:34;25.20;;;17.13;;
18574;SDS011;9417;16.484;102.872;2022-10-31T06:10:49;19.98;;;17.27;;
18574;SDS011;9417;16.484;102.872;2022-10-31T06:13:17;21.55;;;17.05;;
18574;SDS011;9417;16.484;102.872;2022-10-31T06:15:36;21.27;;;17.02;;
18574;SDS011;9417;16.484;102.872;2022-10-31T06:17:43;25.25;;;17.95;;
18574;SDS011;9417;16.484;102.872;2022-10-31T06:19:58;20.92;;;17.23;;
18574;SDS011;9417;16.484;102.872;2022-10-31T06:22:09;20.10;;;17.58;;
18574;SDS011;9417;16.484;102.872;2022-10-31T06:24:17;25.55;;;18.20;;
18574;SDS011;9417;16.484;102.872;2022-10-31T06:26:39;20.67;;;18.08;;
18574;SDS011;9417;16.484;102.872;2022-10-31T06:28:46;22.38;;;18.02;;
18574;SDS011;9417;16.484;102.872;2022-10-31T06:31:12;20.77;;;17.27;;
18574;SDS011;9417;16.484;102.872;2022-10-31T06:33:20;22.40;;;18.83;;
18574;SDS011;9417;16.484;102.872;2022-10-31T06:35:32;23.00;;;19.23;;
18574;SDS011;9417;16.484;102.872;2022-10-31T06:37:39;22.92;;;19.65;;
18574;SDS011;9417;16.484;102.872;2022-10-31T06:40:03;24.52;;;19.10;;
18574;SDS011;9417;16.484;102.872;2022-10-31T06:42:32;26.75;;;21.15;;
18574;SDS011;9417;16.484;102.872;2022-10-31T06:44:39;22.00;;;19.02;;
18574;SDS011;9417;16.484;102.872;2022-10-31T06:46:58;23.10;;;19.45;;
18574;SDS011;9417;16.484;102.872;2022-10-31T06:49:11;24.08;;;20.38;;
18574;SDS011;9417;16.484;102.872;2022-10-31T06:51:28;23.05;;;18.95;;
18574;SDS011;9417;16.484;102.872;2022-10-31T06:53:35;24.20;;;19.75;;
18574;SDS011;9417;16.484;102.872;2022-10-31T06:55:43;22.05;;;18.80;;
18574;SDS011;9417;16.484;102.872;2022-10-31T06:57:54;24.67;;;19.35;;
18574;SDS011;9417;16.484;102.872;2022-10-31T07:00:06;22.70;;;19.10;;
18574;SDS011;9417;16.484;102.872;2022-10-31T07:02:17;22.52;;;19.15;;
18574;SDS011;9417;16.484;102.872;2022-10-31T07:04:25;21.02;;;18.27;;
18574;SDS011;9417;16.484;102.872;2022-10-31T07:06:32;22.45;;;18.73;;
18574;SDS011;9417;16.484;102.872;2022-10-31T07:08:39;25.38;;;18.88;;
18574;SDS011;9417;16.484;102.872;2022-10-31T07:10:50;24.13;;;18.30;;
18574;SDS011;9417;16.484;102.872;2022-10-31T07:15:11;24.10;;;18.23;;
18574;SDS011;9417;16.484;102.872;2022-10-31T07:17:18;21.63;;;17.85;;
18574;SDS011;9417;16.484;102.872;2022-10-31T07:19:34;20.40;;;17.77;;
18574;SDS011;9417;16.484;102.872;2022-10-31T07:21:41;21.45;;;18.50;;
18574;SDS011;9417;16.484;102.872;2022-10-31T07:23:49;20.45;;;18.27;;
18574;SDS011;9417;16.484;102.872;2022-10-31T07:26:16;21.55;;;17.77;;
18574;SDS011;9417;16.484;102.872;2022-10-31T07:28:25;20.88;;;17.10;;
18574;SDS011;9417;16.484;102.872;2022-10-31T07:30:36;23.67;;;17.80;;
18574;SDS011;9417;16.484;102.872;2022-10-31T07:32:43;22.50;;;16.83;;
18574;SDS011;9417;16.484;102.872;2022-10-31T07:34:53;23.83;;;17.42;;
18574;SDS011;9417;16.484;102.872;2022-10-31T07:37:08;21.00;;;16.83;;
18574;SDS011;9417;16.484;102.872;2022-10-31T07:39:15;19.20;;;16.30;;
18574;SDS011;9417;16.484;102.872;2022-10-31T07:41:22;21.92;;;17.25;;
18574;SDS011;9417;16.484;102.872;2022-10-31T07:43:31;20.35;;;17.13;;
18574;SDS011;9417;16.484;102.872;2022-10-31T07:45:44;18.80;;;16.05;;
18574;SDS011;9417;16.484;102.872;2022-10-31T07:48:08;18.48;;;16.15;;
18574;SDS011;9417;16.484;102.872;2022-10-31T07:50:35;20.48;;;16.38;;
18574;SDS011;9417;16.484;102.872;2022-10-31T07:53:00;20.70;;;16.70;;
18574;SDS011;9417;16.484;102.872;2022-10-31T07:55:20;20.23;;;16.17;;
18574;SDS011;9417;16.484;102.872;2022-10-31T07:57:31;19.30;;;17.13;;
18574;SDS011;9417;16.484;102.872;2022-10-31T07:59:42;18.52;;;15.60;;
18574;SDS011;9417;16.484;102.872;2022-10-31T08:01:52;22.67;;;17.23;;
18574;SDS011;9417;16.484;102.872;2022-10-31T08:04:18;20.60;;;16.25;;
18574;SDS011;9417;16.484;102.872;2022-10-31T08:06:37;20.60;;;16.95;;
18574;SDS011;9417;16.484;102.872;2022-10-31T08:09:00;19.00;;;15.88;;
18574;SDS011;9417;16.484;102.872;2022-10-31T08:11:07;22.35;;;17.75;;
18574;SDS011;9417;16.484;102.872;2022-10-31T08:13:14;22.65;;;17.30;;
18574;SDS011;9417;16.484;102.872;2022-10-31T08:15:26;20.95;;;17.08;;
18574;SDS011;9417;16.484;102.872;2022-10-31T08:17:35;19.23;;;16.42;;
18574;SDS011;9417;16.484;102.872;2022-10-31T08:19:44;19.08;;;16.08;;
18574;SDS011;9417;16.484;102.872;2022-10-31T08:21:54;20.65;;;16.33;;
18574;SDS011;9417;16.484;102.872;2022-10-31T08:24:02;20.00;;;16.20;;
18574;SDS011;9417;16.484;102.872;2022-10-31T08:26:09;19.67;;;16.05;;
18574;SDS011;9417;16.484;102.872;2022-10-31T08:28:17;20.60;;;16.90;;
18574;SDS011;9417;16.484;102.872;2022-10-31T08:30:28;21.02;;;15.25;;
18574;SDS011;9417;16.484;102.872;2022-10-31T08:32:56;22.23;;;16.77;;
18574;SDS011;9417;16.484;102.872;2022-10-31T08:35:18;24.48;;;16.70;;
18574;SDS011;9417;16.484;102.872;2022-10-31T08:37:45;20.17;;;16.08;;
18574;SDS011;9417;16.484;102.872;2022-10-31T08:40:01;20.30;;;16.80;;
18574;SDS011;9417;16.484;102.872;2022-10-31T08:42:09;20.95;;;17.27;;
18574;SDS011;9417;16.484;102.872;2022-10-31T08:44:16;21.15;;;18.10;;
18574;SDS011;9417;16.484;102.872;2022-10-31T08:46:25;21.98;;;17.98;;
18574;SDS011;9417;16.484;102.872;2022-10-31T08:48:33;24.83;;;18.70;;
18574;SDS011;9417;16.484;102.872;2022-10-31T08:50:42;22.55;;;18.70;;
18574;SDS011;9417;16.484;102.872;2022-10-31T08:52:50;22.90;;;19.25;;
18574;SDS011;9417;16.484;102.872;2022-10-31T08:55:14;22.17;;;18.35;;
18574;SDS011;9417;16.484;102.872;2022-10-31T08:57:30;22.75;;;18.83;;
18574;SDS011;9417;16.484;102.872;2022-10-31T08:59:37;22.02;;;19.08;;
18574;SDS011;9417;16.484;102.872;2022-10-31T09:01:58;23.50;;;18.92;;
18574;SDS011;9417;16.484;102.872;2022-10-31T09:04:05;28.58;;;21.42;;
18574;SDS011;9417;16.484;102.872;2022-10-31T09:06:12;26.50;;;20.88;;
18574;SDS011;9417;16.484;102.872;2022-10-31T09:08:22;25.13;;;20.45;;
18574;SDS011;9417;16.484;102.872;2022-10-31T09:10:30;28.65;;;21.52;;
18574;SDS011;9417;16.484;102.872;2022-10-31T09:12:38;23.25;;;19.63;;
18574;SDS011;9417;16.484;102.872;2022-10-31T09:14:57;22.83;;;20.10;;
18574;SDS011;9417;16.484;102.872;2022-10-31T09:17:13;22.80;;;19.40;;
18574;SDS011;9417;16.484;102.872;2022-10-31T09:19:39;23.17;;;18.60;;
18574;SDS011;9417;16.484;102.872;2022-10-31T09:21:46;24.23;;;20.00;;
18574;SDS011;9417;16.484;102.872;2022-10-31T09:23:57;25.77;;;20.63;;
18574;SDS011;9417;16.484;102.872;2022-10-31T09:26:04;24.00;;;20.38;;
18574;SDS011;9417;16.484;102.872;2022-10-31T09:28:16;25.30;;;20.17;;
18574;SDS011;9417;16.484;102.872;2022-10-31T09:30:24;25.25;;;20.05;;
18574;SDS011;9417;16.484;102.872;2022-10-31T09:32:33;24.25;;;20.52;;
18574;SDS011;9417;16.484;102.872;2022-10-31T09:34:40;26.45;;;20.83;;
18574;SDS011;9417;16.484;102.872;2022-10-31T09:36:52;25.65;;;20.20;;
18574;SDS011;9417;16.484;102.872;2022-10-31T09:38:59;24.80;;;19.98;;
18574;SDS011;9417;16.484;102.872;2022-10-31T09:41:19;27.10;;;20.88;;
18574;SDS011;9417;16.484;102.872;2022-10-31T09:43:37;26.00;;;21.02;;
18574;SDS011;9417;16.484;102.872;2022-10-31T09:45:55;24.73;;;20.90;;
18574;SDS011;9417;16.484;102.872;2022-10-31T09:48:21;28.17;;;22.05;;
18574;SDS011;9417;16.484;102.872;2022-10-31T09:50:50;24.50;;;20.52;;
18574;SDS011;9417;16.484;102.872;2022-10-31T09:53:08;27.77;;;22.23;;
18574;SDS011;9417;16.484;102.872;2022-10-31T09:55:24;24.08;;;20.00;;
18574;SDS011;9417;16.484;102.872;2022-10-31T09:57:37;30.02;;;21.05;;
18574;SDS011;9417;16.484;102.872;2022-10-31T09:59:45;26.90;;;21.50;;
18574;SDS011;9417;16.484;102.872;2022-10-31T10:01:57;25.25;;;22.05;;
18574;SDS011;9417;16.484;102.872;2022-10-31T10:04:14;26.70;;;21.27;;
18574;SDS011;9417;16.484;102.872;2022-10-31T10:06:43;28.63;;;20.98;;
18574;SDS011;9417;16.484;102.872;2022-10-31T10:09:05;27.48;;;21.65;;
18574;SDS011;9417;16.484;102.872;2022-10-31T10:11:28;26.88;;;20.90;;
18574;SDS011;9417;16.484;102.872;2022-10-31T10:13:55;24.45;;;21.48;;
18574;SDS011;9417;16.484;102.872;2022-10-31T10:16:12;27.42;;;21.27;;
18574;SDS011;9417;16.484;102.872;2022-10-31T10:18:31;27.95;;;21.65;;
18574;SDS011;9417;16.484;102.872;2022-10-31T10:20:48;26.15;;;21.92;;
18574;SDS011;9417;16.484;102.872;2022-10-31T10:23:21;27.13;;;21.13;;
18574;SDS011;9417;16.484;102.872;2022-10-31T10:25:40;27.58;;;21.42;;
18574;SDS011;9417;16.484;102.872;2022-10-31T10:28:08;25.45;;;21.38;;
18574;SDS011;9417;16.484;102.872;2022-10-31T10:30:24;29.67;;;20.67;;
18574;SDS011;9417;16.484;102.872;2022-10-31T10:32:40;25.95;;;21.52;;
18574;SDS011;9417;16.484;102.872;2022-10-31T10:34:53;26.73;;;20.48;;
18574;SDS011;9417;16.484;102.872;2022-10-31T10:37:08;28.45;;;21.08;;
18574;SDS011;9417;16.484;102.872;2022-10-31T10:39:23;26.48;;;20.98;;
18574;SDS011;9417;16.484;102.872;2022-10-31T10:43:41;28.60;;;20.98;;
18574;SDS011;9417;16.484;102.872;2022-10-31T10:46:03;28.13;;;22.63;;
18574;SDS011;9417;16.484;102.872;2022-10-31T10:48:42;26.85;;;21.85;;
18574;SDS011;9417;16.484;102.872;2022-10-31T10:50:50;31.23;;;21.75;;
18574;SDS011;9417;16.484;102.872;2022-10-31T10:53:01;27.85;;;22.23;;
18574;SDS011;9417;16.484;102.872;2022-10-31T10:55:13;28.08;;;22.50;;
18574;SDS011;9417;16.484;102.872;2022-10-31T10:57:32;24.65;;;21.05;;
18574;SDS011;9417;16.484;102.872;2022-10-31T10:59:48;29.23;;;21.67;;
18574;SDS011;9417;16.484;102.872;2022-10-31T11:01:56;29.88;;;22.27;;
18574;SDS011;9417;16.484;102.872;2022-10-31T11:04:24;29.83;;;23.42;;
18574;SDS011;9417;16.484;102.872;2022-10-31T11:06:35;29.77;;;22.48;;
18574;SDS011;9417;16.484;102.872;2022-10-31T11:08:43;27.77;;;21.38;;
18574;SDS011;9417;16.484;102.872;2022-10-31T11:10:56;28.48;;;22.25;;
18574;SDS011;9417;16.484;102.872;2022-10-31T11:13:17;26.35;;;22.35;;
18574;SDS011;9417;16.484;102.872;2022-10-31T11:15:28;30.05;;;23.98;;
18574;SDS011;9417;16.484;102.872;2022-10-31T11:17:40;27.58;;;23.33;;
18574;SDS011;9417;16.484;102.872;2022-10-31T11:19:47;30.15;;;23.85;;
18574;SDS011;9417;16.484;102.872;2022-10-31T11:22:08;29.48;;;23.98;;
18574;SDS011;9417;16.484;102.872;2022-10-31T11:24:22;26.73;;;23.00;;
18574;SDS011;9417;16.484;102.872;2022-10-31T11:26:30;28.80;;;22.77;;
18574;SDS011;9417;16.484;102.872;2022-10-31T11:28:38;31.17;;;23.60;;
18574;SDS011;9417;16.484;102.872;2022-10-31T11:30:45;30.75;;;24.23;;
18574;SDS011;9417;16.484;102.872;2022-10-31T11:32:53;30.75;;;24.98;;
18574;SDS011;9417;16.484;102.872;2022-10-31T11:35:02;30.38;;;23.80;;
18574;SDS011;9417;16.484;102.872;2022-10-31T11:37:15;32.13;;;25.20;;
18574;SDS011;9417;16.484;102.872;2022-10-31T11:39:27;30.25;;;23.73;;
18574;SDS011;9417;16.484;102.872;2022-10-31T11:41:34;31.80;;;25.55;;
18574;SDS011;9417;16.484;102.872;2022-10-31T11:43:45;31.30;;;25.95;;
18574;SDS011;9417;16.484;102.872;2022-10-31T11:45:55;42.00;;;31.33;;
18574;SDS011;9417;16.484;102.872;2022-10-31T11:48:12;47.35;;;32.55;;
18574;SDS011;9417;16.484;102.872;2022-10-31T11:50:22;40.80;;;30.35;;
18574;SDS011;9417;16.484;102.872;2022-10-31T11:52:32;43.35;;;31.70;;
18574;SDS011;9417;16.484;102.872;2022-10-31T11:54:44;47.58;;;33.80;;
18574;SDS011;9417;16.484;102.872;2022-10-31T11:56:54;41.70;;;31.30;;
18574;SDS011;9417;16.484;102.872;2022-10-31T11:59:02;38.58;;;28.52;;
18574;SDS011;9417;16.484;102.872;2022-10-31T12:01:21;37.20;;;28.30;;
18574;SDS011;9417;16.484;102.872;2022-10-31T12:03:33;41.88;;;29.08;;
18574;SDS011;9417;16.484;102.872;2022-10-31T12:05:53;43.80;;;32.08;;
18574;SDS011;9417;16.484;102.872;2022-10-31T12:08:03;46.33;;;34.13;;
18574;SDS011;9417;16.484;102.872;2022-10-31T12:10:14;46.47;;;33.45;;
18574;SDS011;9417;16.484;102.872;2022-10-31T12:12:37;48.05;;;34.25;;
18574;SDS011;9417;16.484;102.872;2022-10-31T12:14:54;47.22;;;35.25;;
18574;SDS011;9417;16.484;102.872;2022-10-31T12:17:10;47.97;;;35.08;;
18574;SDS011;9417;16.484;102.872;2022-10-31T12:19:22;51.03;;;36.35;;
18574;SDS011;9417;16.484;102.872;2022-10-31T12:24:20;46.53;;;35.67;;
18574;SDS011;9417;16.484;102.872;2022-10-31T12:26:39;48.10;;;34.90;;
18574;SDS011;9417;16.484;102.872;2022-10-31T12:29:03;41.65;;;33.72;;
18574;SDS011;9417;16.484;102.872;2022-10-31T12:31:23;45.40;;;33.65;;
18574;SDS011;9417;16.484;102.872;2022-10-31T12:33:43;47.80;;;35.78;;
18574;SDS011;9417;16.484;102.872;2022-10-31T12:36:00;48.60;;;35.00;;
18574;SDS011;9417;16.484;102.872;2022-10-31T12:38:32;48.03;;;34.70;;
18574;SDS011;9417;16.484;102.872;2022-10-31T12:43:29;42.58;;;32.60;;
18574;SDS011;9417;16.484;102.872;2022-10-31T12:50:30;42.35;;;32.10;;
18574;SDS011;9417;16.484;102.872;2022-10-31T12:52:50;44.72;;;32.97;;
18574;SDS011;9417;16.484;102.872;2022-10-31T12:55:08;44.78;;;33.38;;
18574;SDS011;9417;16.484;102.872;2022-10-31T12:57:23;42.10;;;32.75;;
18574;SDS011;9417;16.484;102.872;2022-10-31T12:59:38;47.05;;;34.38;;
18574;SDS011;9417;16.484;102.872;2022-10-31T13:01:50;44.70;;;32.45;;
18574;SDS011;9417;16.484;102.872;2022-10-31T13:04:01;42.63;;;32.60;;
18574;SDS011;9417;16.484;102.872;2022-10-31T13:06:12;44.88;;;32.50;;
18574;SDS011;9417;16.484;102.872;2022-10-31T13:08:24;46.42;;;33.50;;